CheckWX is a tool to help pilots better visualize weather data.  It is not intended as a substitute for an official pre-flight weather briefing.

16:25:39 UTC

KOWI METAR
Ottawa Municipal Airport
Ottawa, Kansas, USA
Current

11 mins ago

KOWI 111615Z AUTO 22007KT 10SM CLR 32/23 A2997 RMK AO2 PWINO
Observed
Jul-11 @ 16:15 UTC
Wind
  • 220° at 7 KTS
Visibility
10 SM
Flight Rules
VFR
Cloud Levels
  • Clear skies
Temperature
32°C / 90°F
Dewpoint
23°C / 73°F
Humidity
59%
Altimeter
29.97" Hg
Pressure
1014.92 hPa
Previous

31 mins ago

KOWI 111555Z AUTO 22008KT 10SM CLR 31/23 A2997 RMK AO2 PWINO
Observed
Jul-11 @ 15:55 UTC
Wind
  • 220° at 8 KTS
Visibility
10 SM
Flight Rules
VFR
Cloud Levels
  • Clear skies
Temperature
31°C / 88°F
Dewpoint
23°C / 73°F
Humidity
62%
Altimeter
29.97" Hg
Pressure
1014.92 hPa
Previous

51 mins ago

KOWI 111535Z AUTO 22007KT 10SM CLR 31/23 A2997 RMK AO2 PWINO
Observed
Jul-11 @ 15:35 UTC
Wind
  • 220° at 7 KTS
Visibility
10 SM
Flight Rules
VFR
Cloud Levels
  • Clear skies
Temperature
31°C / 88°F
Dewpoint
23°C / 73°F
Humidity
62%
Altimeter
29.97" Hg
Pressure
1014.92 hPa